createdAt,value
2018-07-28T01:00:29.679Z,0.00
2018-07-28T01:01:29.623Z,0.00
2018-07-28T01:02:29.613Z,0.00
2018-07-28T01:03:29.604Z,0.00
2018-07-28T01:04:29.591Z,0.00
2018-07-28T01:05:29.631Z,0.00
2018-07-28T01:06:29.570Z,0.00
2018-07-28T01:07:29.559Z,0.00
2018-07-28T01:08:29.545Z,0.00
2018-07-28T01:09:29.544Z,0.00
2018-07-28T01:10:29.568Z,0.00
2018-07-28T01:11:29.524Z,0.00
2018-07-28T01:12:29.507Z,0.00
2018-07-28T01:13:29.490Z,0.00
2018-07-28T01:14:29.480Z,0.00
2018-07-28T01:15:29.516Z,0.00
2018-07-28T01:16:29.456Z,0.00
2018-07-28T01:17:29.445Z,0.00
2018-07-28T01:18:29.433Z,0.00
2018-07-28T01:19:29.423Z,0.00
2018-07-28T01:20:29.462Z,0.00
2018-07-28T01:21:29.400Z,0.00
2018-07-28T01:22:29.392Z,0.00
2018-07-28T01:23:29.387Z,0.00
2018-07-28T01:24:29.368Z,0.00
2018-07-28T01:25:29.409Z,0.00
2018-07-28T01:26:29.350Z,0.00
2018-07-28T01:27:29.334Z,0.00
2018-07-28T01:28:29.327Z,0.00
2018-07-28T01:29:29.319Z,0.00
2018-07-28T01:30:29.355Z,0.00
2018-07-28T01:31:29.293Z,0.00
2018-07-28T01:32:29.287Z,0.00
2018-07-28T01:33:29.269Z,0.00
2018-07-28T01:34:29.270Z,0.00
2018-07-28T01:35:29.246Z,0.00
2018-07-28T01:36:29.280Z,0.00
2018-07-28T01:37:29.225Z,0.00
2018-07-28T01:38:29.213Z,0.00
2018-07-28T01:39:29.203Z,0.00
2018-07-28T01:40:29.194Z,0.00
2018-07-28T01:41:29.225Z,0.00
2018-07-28T01:42:29.169Z,0.00
2018-07-28T01:43:29.158Z,0.00
2018-07-28T01:44:29.146Z,0.00
2018-07-28T01:45:29.139Z,0.00
2018-07-28T01:46:29.172Z,0.00
2018-07-28T01:47:29.112Z,0.00
2018-07-28T01:48:29.100Z,0.00
2018-07-28T01:49:29.140Z,0.00
2018-07-28T01:50:29.080Z,0.00
2018-07-28T01:51:29.115Z,0.00
2018-07-28T01:52:29.077Z,0.00
2018-07-28T01:53:29.047Z,0.00
2018-07-28T01:54:29.036Z,0.00
2018-07-28T01:55:29.024Z,0.00
2018-07-28T01:56:29.059Z,0.00
2018-07-28T01:57:29.007Z,0.00
2018-07-28T01:58:28.994Z,0.00
2018-07-28T01:59:28.979Z,0.00
2018-07-28T02:00:28.973Z,0.00
2018-07-28T02:01:29.002Z,0.00
2018-07-28T02:02:28.952Z,0.00
2018-07-28T02:03:28.948Z,0.00
2018-07-28T02:04:28.932Z,0.00
2018-07-28T02:05:28.916Z,0.00
2018-07-28T02:06:28.950Z,0.00
2018-07-28T02:07:28.893Z,0.00
2018-07-28T02:08:28.881Z,0.00
2018-07-28T02:09:28.871Z,0.00
2018-07-28T02:10:28.860Z,0.00
2018-07-28T02:11:28.893Z,0.00
2018-07-28T02:12:28.834Z,0.00
2018-07-28T02:13:28.825Z,0.00
2018-07-28T02:14:28.812Z,0.00
2018-07-28T02:15:28.800Z,0.00
2018-07-28T02:16:28.835Z,0.00
2018-07-28T02:17:28.779Z,0.00
2018-07-28T02:18:28.802Z,0.00
2018-07-28T02:19:28.763Z,0.00
2018-07-28T02:20:28.745Z,0.00
2018-07-28T02:21:28.781Z,0.00
2018-07-28T02:22:28.721Z,0.00
2018-07-28T02:23:28.713Z,0.00
2018-07-28T02:24:28.702Z,0.00
2018-07-28T02:25:28.695Z,0.00
2018-07-28T02:26:28.726Z,0.00
2018-07-28T02:27:28.669Z,0.00
2018-07-28T02:28:28.724Z,0.00
2018-07-28T02:29:28.653Z,0.00
2018-07-28T02:30:28.635Z,0.00
2018-07-28T02:31:28.670Z,0.00
2018-07-28T02:32:28.613Z,0.00
2018-07-28T02:33:28.600Z,0.00
2018-07-28T02:34:28.596Z,0.00
2018-07-28T02:35:28.580Z,0.00
2018-07-28T02:36:28.615Z,0.00
2018-07-28T02:37:28.556Z,0.00
2018-07-28T02:38:28.545Z,0.00
2018-07-28T02:39:28.540Z,0.00
2018-07-28T02:40:28.521Z,0.00
2018-07-28T02:41:28.563Z,0.00
2018-07-28T02:42:28.507Z,0.00
2018-07-28T02:43:28.488Z,0.00
2018-07-28T02:44:28.477Z,0.00
2018-07-28T02:45:28.465Z,0.00
2018-07-28T02:46:28.502Z,0.00
2018-07-28T02:47:28.444Z,0.00
2018-07-28T02:48:28.437Z,0.00
2018-07-28T02:49:28.425Z,0.00
2018-07-28T02:50:28.418Z,0.00
2018-07-28T02:51:28.453Z,0.00
2018-07-28T02:52:28.402Z,0.00
2018-07-28T02:53:28.379Z,0.00
2018-07-28T02:54:28.372Z,0.00
2018-07-28T02:55:28.354Z,0.00
2018-07-28T02:56:28.405Z,0.00
2018-07-28T02:57:28.331Z,0.00
2018-07-28T02:58:28.321Z,0.00
2018-07-28T02:59:28.320Z,0.00
2018-07-28T03:00:28.298Z,0.00
2018-07-28T03:01:28.334Z,0.00
2018-07-28T03:02:28.280Z,0.00
2018-07-28T03:03:28.263Z,0.00
2018-07-28T03:04:28.255Z,0.00
2018-07-28T03:05:28.252Z,0.00
2018-07-28T03:06:28.274Z,0.00
2018-07-28T03:07:28.219Z,0.00
2018-07-28T03:08:28.211Z,0.00
2018-07-28T03:09:28.197Z,0.00
2018-07-28T03:10:28.188Z,0.00
2018-07-28T03:11:28.220Z,0.00
2018-07-28T03:12:28.167Z,0.00
2018-07-28T03:13:28.150Z,0.00
2018-07-28T03:14:28.159Z,0.00
2018-07-28T03:15:28.128Z,0.00
2018-07-28T03:16:28.168Z,0.00
2018-07-28T03:17:28.114Z,0.00
2018-07-28T03:18:28.098Z,0.00
2018-07-28T03:19:28.085Z,0.00
2018-07-28T03:20:28.076Z,0.00
2018-07-28T03:21:28.116Z,0.00
2018-07-28T03:22:28.053Z,0.00
2018-07-28T03:23:28.042Z,4.00
2018-07-28T03:24:28.036Z,4.00
2018-07-28T03:25:28.016Z,0.00
2018-07-28T03:26:28.056Z,0.00
2018-07-28T03:27:27.997Z,4.00
2018-07-28T03:28:27.987Z,4.00
2018-07-28T03:29:27.977Z,0.00
2018-07-28T03:30:27.963Z,4.00
2018-07-28T03:31:27.998Z,4.00
2018-07-28T03:32:27.952Z,4.00
2018-07-28T03:33:27.932Z,8.00
2018-07-28T03:34:27.916Z,4.00
2018-07-28T03:35:27.913Z,8.00
2018-07-28T03:36:27.939Z,8.00
2018-07-28T03:37:27.884Z,8.00
2018-07-28T03:38:27.869Z,8.00
2018-07-28T03:39:27.864Z,12.00
2018-07-28T03:40:27.849Z,12.00
2018-07-28T03:41:27.889Z,16.00
2018-07-28T03:42:27.826Z,16.00
2018-07-28T03:43:27.816Z,20.00
2018-07-28T03:44:27.803Z,20.00
2018-07-28T03:45:27.789Z,24.00
2018-07-28T03:46:27.798Z,24.00
2018-07-28T03:47:27.820Z,28.00
2018-07-28T03:48:27.757Z,28.00
2018-07-28T03:49:27.763Z,36.00
2018-07-28T03:50:27.736Z,36.00
2018-07-28T03:51:27.724Z,40.00
2018-07-28T03:52:27.759Z,44.00
2018-07-28T03:53:27.723Z,48.00
2018-07-28T03:54:27.690Z,52.00
2018-07-28T03:55:27.681Z,52.00
2018-07-28T03:56:27.701Z,60.00
2018-07-28T03:57:27.703Z,60.00
2018-07-28T03:58:27.657Z,68.00
2018-07-28T03:59:27.638Z,72.00
2018-07-28T04:00:27.624Z,76.00
2018-07-28T04:01:27.611Z,80.00
2018-07-28T04:02:27.644Z,88.00
2018-07-28T04:03:27.596Z,92.00
2018-07-28T04:04:27.578Z,100.00
2018-07-28T04:05:27.571Z,104.00
2018-07-28T04:06:27.552Z,112.00
2018-07-28T04:07:27.589Z,124.00
2018-07-28T04:08:27.533Z,124.00
2018-07-28T04:09:27.525Z,132.00
2018-07-28T04:10:27.517Z,140.00
2018-07-28T04:11:27.499Z,152.00
2018-07-28T04:12:27.540Z,160.00
2018-07-28T04:13:27.481Z,172.00
2018-07-28T04:14:27.490Z,176.00
2018-07-28T04:15:27.457Z,188.00
2018-07-28T04:16:27.471Z,196.00
2018-07-28T04:17:27.478Z,208.00
2018-07-28T04:18:27.417Z,224.00
2018-07-28T04:19:27.409Z,240.00
2018-07-28T04:20:27.412Z,260.00
2018-07-28T04:21:27.402Z,276.00
2018-07-28T04:22:27.421Z,280.00
2018-07-28T04:23:27.364Z,288.00
2018-07-28T04:24:27.352Z,292.00
2018-07-28T04:25:27.341Z,296.00
2018-07-28T04:26:27.337Z,308.00
2018-07-28T04:27:27.372Z,316.00
2018-07-28T04:28:27.315Z,324.00
2018-07-28T04:29:27.338Z,336.00
2018-07-28T04:30:27.288Z,340.00
2018-07-28T04:31:27.274Z,356.00
2018-07-28T04:32:27.317Z,364.00
2018-07-28T04:33:27.252Z,376.00
2018-07-28T04:34:27.245Z,392.00
2018-07-28T04:35:27.246Z,404.00
2018-07-28T04:36:27.221Z,412.00
2018-07-28T04:37:27.254Z,432.00
2018-07-28T04:38:27.221Z,460.00
2018-07-28T04:39:27.186Z,472.00
2018-07-28T04:40:27.174Z,492.00
2018-07-28T04:41:27.170Z,508.00
2018-07-28T04:42:27.198Z,524.00
2018-07-28T04:43:27.148Z,540.00
2018-07-28T04:44:27.153Z,568.00
2018-07-28T04:45:27.129Z,596.00
2018-07-28T04:46:27.108Z,620.00
2018-07-28T04:47:27.161Z,640.00
2018-07-28T04:48:27.088Z,648.00
2018-07-28T04:49:27.080Z,636.00
2018-07-28T04:50:27.085Z,652.00
2018-07-28T04:51:27.057Z,688.00
2018-07-28T04:52:27.103Z,700.00
2018-07-28T04:53:27.036Z,720.00
2018-07-28T04:54:27.021Z,716.00
2018-07-28T04:55:27.017Z,744.00
2018-07-28T04:56:27.015Z,816.00
2018-07-28T04:57:27.039Z,896.00
2018-07-28T04:58:26.982Z,972.00
2018-07-28T04:59:26.967Z,1028.00
2018-07-28T05:00:26.957Z,1024.00
2018-07-28T05:01:26.957Z,980.00
2018-07-28T05:02:26.977Z,904.00
2018-07-28T05:03:26.923Z,888.00
2018-07-28T05:04:26.928Z,872.00
2018-07-28T05:05:26.897Z,824.00
2018-07-28T05:06:26.890Z,800.00
2018-07-28T05:07:27.038Z,772.00
2018-07-28T05:08:26.872Z,756.00
2018-07-28T05:09:26.856Z,764.00
2018-07-28T05:10:26.848Z,752.00
2018-07-28T05:11:26.844Z,732.00
2018-07-28T05:12:26.872Z,752.00
2018-07-28T05:13:26.825Z,748.00
2018-07-28T05:14:26.803Z,740.00
2018-07-28T05:15:26.793Z,756.00
2018-07-28T05:16:26.776Z,748.00
2018-07-28T05:17:26.823Z,748.00
2018-07-28T05:18:26.788Z,752.00
2018-07-28T05:19:26.750Z,808.00
2018-07-28T05:20:26.732Z,1052.00
2018-07-28T05:21:26.725Z,1760.00
2018-07-28T05:22:26.774Z,2468.00
2018-07-28T05:23:26.698Z,2404.00
2018-07-28T05:24:26.689Z,940.00
2018-07-28T05:25:26.678Z,1000.00
2018-07-28T05:26:26.667Z,896.00
2018-07-28T05:27:26.706Z,872.00
2018-07-28T05:28:26.649Z,916.00
2018-07-28T05:29:26.635Z,888.00
2018-07-28T05:30:26.624Z,924.00
2018-07-28T05:31:26.615Z,972.00
2018-07-28T05:32:26.655Z,1020.00
2018-07-28T05:33:26.595Z,1204.00
2018-07-28T05:34:26.599Z,1420.00
2018-07-28T05:35:26.569Z,1060.00
2018-07-28T05:36:26.558Z,1120.00
2018-07-28T05:37:26.592Z,1216.00
2018-07-28T05:38:26.540Z,1240.00
2018-07-28T05:39:26.527Z,1312.00
2018-07-28T05:40:26.520Z,1348.00
2018-07-28T05:41:26.507Z,1464.00
2018-07-28T05:42:26.571Z,1520.00
2018-07-28T05:43:26.486Z,1532.00
2018-07-28T05:44:26.490Z,1644.00
2018-07-28T05:45:26.467Z,1696.00
2018-07-28T05:46:26.455Z,1652.00
2018-07-28T05:47:26.486Z,1756.00
2018-07-28T05:48:26.428Z,1876.00
2018-07-28T05:49:26.418Z,1716.00
2018-07-28T05:50:26.404Z,1672.00
2018-07-28T05:51:26.391Z,1572.00
2018-07-28T05:52:26.455Z,1500.00
2018-07-28T05:53:26.380Z,1488.00
2018-07-28T05:54:26.359Z,1448.00
2018-07-28T05:55:26.364Z,1400.00
2018-07-28T05:56:26.339Z,1404.00
2018-07-28T05:57:26.373Z,1412.00
2018-07-28T05:58:26.315Z,1368.00
2018-07-28T05:59:26.317Z,1336.00
2018-07-28T06:00:26.292Z,1272.00
2018-07-28T06:01:26.280Z,1256.00
2018-07-28T06:02:26.373Z,1228.00
2018-07-28T06:03:26.309Z,1148.00
2018-07-28T06:04:26.249Z,1108.00
2018-07-28T06:05:26.238Z,1072.00
2018-07-28T06:06:26.228Z,1112.00
2018-07-28T06:07:26.219Z,1208.00
2018-07-28T06:08:26.256Z,1364.00
2018-07-28T06:09:26.193Z,1560.00
2018-07-28T06:10:26.181Z,1564.00
2018-07-28T06:11:26.170Z,1512.00
2018-07-28T06:12:26.167Z,1416.00
2018-07-28T06:13:26.196Z,1244.00
2018-07-28T06:14:26.159Z,1136.00
2018-07-28T06:15:26.127Z,1120.00
2018-07-28T06:16:26.116Z,1104.00
2018-07-28T06:17:26.114Z,1056.00
2018-07-28T06:18:26.153Z,1044.00
2018-07-28T06:19:26.088Z,1068.00
2018-07-28T06:20:26.163Z,1048.00
2018-07-28T06:21:26.062Z,920.00
2018-07-28T06:22:26.057Z,788.00
2018-07-28T06:23:26.090Z,692.00
2018-07-28T06:24:26.031Z,660.00
2018-07-28T06:25:26.028Z,724.00
2018-07-28T06:26:26.009Z,928.00
2018-07-28T06:27:25.997Z,1244.00
2018-07-28T06:28:26.028Z,1452.00
2018-07-28T06:29:25.981Z,1700.00
2018-07-28T06:30:25.971Z,1388.00
2018-07-28T06:31:25.953Z,1280.00
2018-07-28T06:32:25.940Z,1156.00
2018-07-28T06:33:25.980Z,1032.00
2018-07-28T06:34:25.920Z,992.00
2018-07-28T06:35:25.908Z,1032.00
2018-07-28T06:36:25.914Z,1092.00
2018-07-28T06:37:25.891Z,1132.00
2018-07-28T06:38:25.923Z,1180.00
2018-07-28T06:39:25.905Z,1184.00
2018-07-28T06:40:25.853Z,1204.00
2018-07-28T06:41:25.846Z,1244.00
2018-07-28T06:42:25.839Z,1272.00
2018-07-28T06:43:25.868Z,1400.00
2018-07-28T06:44:25.807Z,1652.00
2018-07-28T06:45:25.801Z,1756.00
2018-07-28T06:46:25.785Z,1904.00
2018-07-28T06:47:25.774Z,1728.00
2018-07-28T06:48:25.810Z,1608.00
2018-07-28T06:49:25.758Z,1440.00
2018-07-28T06:50:25.742Z,1316.00
2018-07-28T06:51:25.731Z,1340.00
2018-07-28T06:52:25.731Z,1444.00
2018-07-28T06:53:25.823Z,1584.00
2018-07-28T06:54:25.715Z,1776.00
2018-07-28T06:55:25.716Z,1960.00
2018-07-28T06:56:25.706Z,2316.00
2018-07-28T06:57:25.680Z,2368.00
2018-07-28T06:58:25.700Z,2476.00
2018-07-28T06:59:25.656Z,2428.00
2018-07-28T07:00:25.630Z,2432.00
2018-07-28T07:01:25.617Z,2476.00
2018-07-28T07:02:25.617Z,2532.00
2018-07-28T07:03:25.661Z,2532.00
2018-07-28T07:04:25.584Z,2540.00
2018-07-28T07:05:25.599Z,2552.00
2018-07-28T07:06:25.568Z,2340.00
2018-07-28T07:07:25.550Z,2168.00
2018-07-28T07:08:25.605Z,2004.00
2018-07-28T07:09:25.545Z,1888.00
2018-07-28T07:10:25.524Z,1776.00
2018-07-28T07:11:25.515Z,1640.00
2018-07-28T07:12:25.493Z,1512.00
2018-07-28T07:13:25.544Z,1420.00
2018-07-28T07:14:25.503Z,1392.00
2018-07-28T07:15:25.467Z,1372.00
2018-07-28T07:16:25.452Z,1364.00
2018-07-28T07:17:25.445Z,1348.00
2018-07-28T07:18:25.473Z,1352.00
2018-07-28T07:19:25.475Z,1360.00
2018-07-28T07:20:25.407Z,1384.00
2018-07-28T07:21:25.392Z,1416.00
2018-07-28T07:22:25.384Z,1460.00
2018-07-28T07:23:25.419Z,1520.00
2018-07-28T07:24:25.357Z,1588.00
2018-07-28T07:25:25.349Z,1656.00
2018-07-28T07:26:25.344Z,1704.00
2018-07-28T07:27:25.326Z,1756.00
2018-07-28T07:28:25.374Z,1828.00
2018-07-28T07:29:25.314Z,1884.00
2018-07-28T07:30:25.353Z,1920.00
2018-07-28T07:31:25.279Z,1928.00
2018-07-28T07:32:25.271Z,1944.00
2018-07-28T07:33:25.259Z,1996.00
2018-07-28T07:34:25.301Z,2028.00
2018-07-28T07:35:25.234Z,1908.00
2018-07-28T07:36:25.228Z,1716.00
2018-07-28T07:37:25.218Z,1524.00
2018-07-28T07:38:25.200Z,1368.00
2018-07-28T07:39:25.253Z,1252.00
2018-07-28T07:40:25.179Z,1168.00
2018-07-28T07:41:25.168Z,1120.00
2018-07-28T07:42:25.159Z,1092.00
2018-07-28T07:43:25.147Z,1068.00
2018-07-28T07:44:25.185Z,1072.00
2018-07-28T07:45:25.123Z,1104.00
2018-07-28T07:46:25.121Z,1152.00
2018-07-28T07:47:25.169Z,1256.00
2018-07-28T07:48:25.090Z,1368.00
2018-07-28T07:49:25.129Z,1488.00
2018-07-28T07:50:25.070Z,1612.00
2018-07-28T07:51:25.064Z,1712.00
2018-07-28T07:52:25.046Z,1868.00
2018-07-28T07:53:25.033Z,2008.00
2018-07-28T07:54:25.067Z,2144.00
2018-07-28T07:55:25.017Z,2308.00
2018-07-28T07:56:25.004Z,2588.00
2018-07-28T07:57:24.991Z,2840.00
2018-07-28T07:58:24.977Z,3116.00
2018-07-28T07:59:25.023Z,3260.00
2018-07-28T08:00:24.956Z,3376.00
2018-07-28T08:01:24.941Z,3504.00
2018-07-28T08:02:24.933Z,3604.00
2018-07-28T08:03:24.920Z,3728.00
2018-07-28T08:04:24.956Z,3684.00
2018-07-28T08:05:24.898Z,3528.00
2018-07-28T08:06:24.953Z,3356.00
2018-07-28T08:07:24.876Z,3084.00
2018-07-28T08:08:24.863Z,2780.00
2018-07-28T08:09:24.897Z,2472.00
2018-07-28T08:10:24.840Z,2240.00
2018-07-28T08:11:24.830Z,2104.00
2018-07-28T08:12:24.818Z,1996.00
2018-07-28T08:13:24.808Z,1924.00
2018-07-28T08:14:24.855Z,1948.00
2018-07-28T08:15:24.790Z,2024.00
2018-07-28T08:16:24.776Z,2152.00
2018-07-28T08:17:24.764Z,2340.00
2018-07-28T08:18:24.751Z,2580.00
2018-07-28T08:19:24.788Z,2828.00
2018-07-28T08:20:24.731Z,3096.00
2018-07-28T08:21:24.718Z,3324.00
2018-07-28T08:22:24.705Z,3468.00
2018-07-28T08:23:24.697Z,3540.00
2018-07-28T08:24:24.729Z,3616.00
2018-07-28T08:25:24.679Z,3616.00
2018-07-28T08:26:24.663Z,3580.00
2018-07-28T08:27:24.658Z,3492.00
2018-07-28T08:28:24.641Z,3360.00
2018-07-28T08:29:24.691Z,3188.00
2018-07-28T08:30:24.635Z,3048.00
2018-07-28T08:31:24.608Z,3004.00
2018-07-28T08:32:24.601Z,3072.00
2018-07-28T08:33:24.634Z,3196.00
2018-07-28T08:34:24.623Z,3296.00
2018-07-28T08:35:24.566Z,3292.00
2018-07-28T08:36:24.549Z,3248.00
2018-07-28T08:37:24.539Z,3192.00
2018-07-28T08:38:24.527Z,3036.00
2018-07-28T08:39:24.564Z,3000.00
2018-07-28T08:40:24.506Z,3000.00
2018-07-28T08:41:24.511Z,3088.00
2018-07-28T08:42:24.486Z,3252.00
2018-07-28T08:43:24.472Z,3412.00
2018-07-28T08:44:24.516Z,3544.00
2018-07-28T08:45:24.451Z,3620.00
2018-07-28T08:46:24.439Z,3624.00
2018-07-28T08:47:24.439Z,3724.00
2018-07-28T08:48:24.416Z,3976.00
2018-07-28T08:49:24.502Z,4276.00
2018-07-28T08:50:24.438Z,4544.00
2018-07-28T08:51:24.381Z,4748.00
2018-07-28T08:52:24.372Z,4896.00
2018-07-28T08:53:24.367Z,4984.00
2018-07-28T08:54:24.394Z,5012.00
2018-07-28T08:55:24.394Z,5028.00
2018-07-28T08:56:24.330Z,4840.00
2018-07-28T08:57:24.315Z,4660.00
2018-07-28T08:58:24.311Z,4524.00
2018-07-28T08:59:24.294Z,4672.00
2018-07-28T09:00:24.331Z,4672.00
2018-07-28T09:01:24.281Z,4612.00
2018-07-28T09:02:24.263Z,4404.00
2018-07-28T09:03:24.252Z,4568.00
2018-07-28T09:04:24.255Z,4516.00
2018-07-28T09:05:24.277Z,4216.00
2018-07-28T09:06:24.218Z,4100.00
2018-07-28T09:07:24.226Z,4116.00
2018-07-28T09:08:24.195Z,4148.00
2018-07-28T09:09:24.221Z,4084.00
2018-07-28T09:10:24.831Z,4112.00
2018-07-28T09:11:24.235Z,4376.00
2018-07-28T09:12:24.211Z,4980.00
2018-07-28T09:13:24.140Z,6248.00
2018-07-28T09:14:24.142Z,5040.00
2018-07-28T09:15:24.177Z,4464.00
2018-07-28T09:16:24.154Z,5364.00
2018-07-28T09:17:24.096Z,9608.00
2018-07-28T09:18:24.087Z,6580.00
2018-07-28T09:19:24.078Z,4840.00
2018-07-28T09:20:24.062Z,5112.00
2018-07-28T09:21:24.100Z,5436.00
2018-07-28T09:22:24.039Z,5484.00
2018-07-28T09:23:24.079Z,5568.00
2018-07-28T09:24:24.018Z,5700.00
2018-07-28T09:25:24.007Z,5544.00
2018-07-28T09:26:24.045Z,5224.00
2018-07-28T09:27:23.991Z,4824.00
2018-07-28T09:28:23.973Z,4204.00
2018-07-28T09:29:23.962Z,3728.00
2018-07-28T09:30:23.955Z,3408.00
2018-07-28T09:31:24.019Z,5528.00
2018-07-28T09:32:23.933Z,6756.00
2018-07-28T09:33:23.922Z,3200.00
2018-07-28T09:34:23.908Z,3132.00
2018-07-28T09:35:23.905Z,5192.00
2018-07-28T09:36:23.941Z,8484.00
2018-07-28T09:37:23.876Z,5268.00
2018-07-28T09:38:23.870Z,3352.00
2018-07-28T09:39:23.867Z,3540.00
2018-07-28T09:40:23.842Z,3748.00
2018-07-28T09:41:23.880Z,4168.00
2018-07-28T09:42:23.826Z,4984.00
2018-07-28T09:43:23.810Z,6756.00
2018-07-28T09:44:23.799Z,8240.00
2018-07-28T09:45:24.327Z,19232.00
2018-07-28T09:46:23.854Z,13372.00
2018-07-28T09:47:23.764Z,5308.00
2018-07-28T09:48:23.756Z,6892.00
2018-07-28T09:49:23.749Z,47552.00
2018-07-28T09:50:23.733Z,49856.00
2018-07-28T09:51:23.766Z,10628.00
2018-07-28T09:52:23.711Z,5432.00
2018-07-28T09:53:23.699Z,5780.00
2018-07-28T09:54:23.696Z,5684.00
2018-07-28T09:55:23.677Z,5788.00
2018-07-28T09:56:23.726Z,5764.00
2018-07-28T09:57:23.655Z,5540.00
2018-07-28T09:58:23.646Z,4660.00
2018-07-28T09:59:23.633Z,5036.00
2018-07-28T10:00:23.622Z,6000.00
2018-07-28T10:01:23.660Z,6832.00
2018-07-28T10:02:23.611Z,14676.00
2018-07-28T10:03:23.589Z,8084.00
2018-07-28T10:04:23.583Z,7632.00
2018-07-28T10:05:23.568Z,7200.00
2018-07-28T10:06:23.603Z,7376.00
2018-07-28T10:07:23.547Z,7664.00
2018-07-28T10:08:23.538Z,7492.00
2018-07-28T10:09:23.522Z,7496.00
2018-07-28T10:10:23.516Z,7168.00
2018-07-28T10:11:23.556Z,7396.00
2018-07-28T10:12:23.490Z,8132.00
2018-07-28T10:13:23.479Z,7716.00
2018-07-28T10:14:23.474Z,7316.00
2018-07-28T10:15:23.458Z,7060.00
2018-07-28T10:16:23.643Z,6744.00
2018-07-28T10:17:23.435Z,6336.00
2018-07-28T10:18:23.425Z,6620.00
2018-07-28T10:19:23.417Z,6372.00
2018-07-28T10:20:23.422Z,6016.00
2018-07-28T10:21:23.449Z,5560.00
2018-07-28T10:22:23.379Z,5308.00
2018-07-28T10:23:23.372Z,5228.00
2018-07-28T10:24:23.358Z,5548.00
2018-07-28T10:25:23.352Z,5940.00
2018-07-28T10:26:23.383Z,6532.00
2018-07-28T10:27:23.327Z,7100.00
2018-07-28T10:28:23.325Z,6816.00
2018-07-28T10:29:23.307Z,5868.00
2018-07-28T10:30:23.293Z,4768.00
2018-07-28T10:31:23.334Z,4236.00
2018-07-28T10:32:23.271Z,4192.00
2018-07-28T10:33:23.264Z,4680.00
2018-07-28T10:34:23.252Z,5984.00
2018-07-28T10:35:23.247Z,7148.00
2018-07-28T10:36:23.353Z,7220.00
2018-07-28T10:37:23.224Z,7364.00
2018-07-28T10:38:23.205Z,17440.00
2018-07-28T10:39:23.193Z,8180.00
2018-07-28T10:40:23.192Z,9364.00
2018-07-28T10:41:23.236Z,8620.00
2018-07-28T10:42:23.163Z,7728.00
2018-07-28T10:43:23.161Z,6904.00
2018-07-28T10:44:23.185Z,6676.00
2018-07-28T10:45:23.138Z,6744.00
2018-07-28T10:46:23.165Z,7724.00
2018-07-28T10:47:23.109Z,17088.00
2018-07-28T10:48:23.104Z,8112.00
2018-07-28T10:49:23.085Z,19808.00
2018-07-28T10:50:23.073Z,13384.00
2018-07-28T10:51:23.115Z,11016.00
2018-07-28T10:52:23.051Z,8484.00
2018-07-28T10:53:23.042Z,9124.00
2018-07-28T10:54:23.029Z,10852.00
2018-07-28T10:55:23.043Z,7716.00
2018-07-28T10:56:23.060Z,11900.00
2018-07-28T10:57:22.996Z,27584.00
2018-07-28T10:58:22.989Z,36736.00
2018-07-28T10:59:22.975Z,17632.00
2018-07-28T11:00:23.014Z,7240.00
2018-07-28T11:01:22.953Z,6116.00
2018-07-28T11:02:22.994Z,10612.00
2018-07-28T11:03:22.934Z,23520.00
2018-07-28T11:04:22.921Z,36384.00
2018-07-28T11:05:22.911Z,14656.00
2018-07-28T11:06:22.901Z,10384.00
2018-07-28T11:07:22.934Z,12816.00
2018-07-28T11:08:22.877Z,10348.00
2018-07-28T11:09:22.867Z,11600.00
2018-07-28T11:10:22.857Z,20384.00
2018-07-28T11:11:22.851Z,17696.00
2018-07-28T11:12:22.885Z,18176.00
2018-07-28T11:13:22.823Z,26432.00
2018-07-28T11:14:22.814Z,55648.00
2018-07-28T11:15:22.801Z,40992.00
2018-07-28T11:16:22.794Z,34048.00
2018-07-28T11:17:22.829Z,59040.00
2018-07-28T11:18:22.776Z,41120.00
2018-07-28T11:19:22.757Z,71840.00
2018-07-28T11:20:22.750Z,68416.00
2018-07-28T11:21:22.738Z,62208.00
2018-07-28T11:22:22.771Z,74656.00
2018-07-28T11:23:22.719Z,79200.00
2018-07-28T11:24:22.714Z,70848.00
2018-07-28T11:25:22.697Z,78400.00
2018-07-28T11:26:22.692Z,82848.00
2018-07-28T11:27:22.718Z,72416.00
2018-07-28T11:28:22.663Z,82336.00
2018-07-28T11:29:22.655Z,80448.00
2018-07-28T11:30:22.643Z,82912.00
2018-07-28T11:31:22.632Z,72000.00
2018-07-28T11:32:22.675Z,70272.00
2018-07-28T11:33:22.687Z,70912.00
2018-07-28T11:34:22.598Z,29600.00
2018-07-28T11:35:22.590Z,17632.00
2018-07-28T11:36:22.582Z,10164.00
2018-07-28T11:37:22.614Z,12328.00
2018-07-28T11:38:22.558Z,30240.00
2018-07-28T11:39:22.544Z,83104.00
2018-07-28T11:40:22.536Z,91424.00
2018-07-28T11:41:22.524Z,88160.00
2018-07-28T11:42:22.560Z,84160.00
2018-07-28T11:43:22.501Z,76768.00
2018-07-28T11:44:22.493Z,45472.00
2018-07-28T11:45:22.480Z,17344.00
2018-07-28T11:46:22.470Z,24768.00
2018-07-28T11:47:22.505Z,19264.00
2018-07-28T11:48:22.451Z,19168.00
2018-07-28T11:49:22.439Z,10732.00
2018-07-28T11:50:22.428Z,51264.00
2018-07-28T11:51:22.435Z,46272.00
2018-07-28T11:52:22.465Z,30208.00
2018-07-28T11:53:22.400Z,43776.00
2018-07-28T11:54:22.392Z,7400.00
2018-07-28T11:55:22.376Z,91744.00
2018-07-28T11:56:22.403Z,18464.00
2018-07-28T11:57:22.395Z,29568.00
2018-07-28T11:58:22.433Z,84768.00
2018-07-28T11:59:22.330Z,89600.00
2018-07-28T12:00:22.322Z,90176.00
2018-07-28T12:01:22.311Z,92480.00
2018-07-28T12:02:22.355Z,88320.00
2018-07-28T12:03:22.288Z,91264.00
2018-07-28T12:04:22.280Z,92448.00
2018-07-28T12:05:22.316Z,92640.00
2018-07-28T12:06:22.256Z,97088.00
2018-07-28T12:07:22.247Z,95424.00
2018-07-28T12:08:22.303Z,91680.00
2018-07-28T12:09:22.224Z,87776.00
2018-07-28T12:10:22.215Z,83456.00
2018-07-28T12:11:22.209Z,80000.00
2018-07-28T12:12:22.210Z,76768.00
2018-07-28T12:13:22.229Z,73472.00
2018-07-28T12:14:22.175Z,79072.00
2018-07-28T12:15:22.167Z,86304.00
2018-07-28T12:16:22.151Z,90112.00
2018-07-28T12:17:22.146Z,93632.00
2018-07-28T12:18:22.184Z,88736.00
2018-07-28T12:19:22.125Z,87168.00
2018-07-28T12:20:22.112Z,87552.00
2018-07-28T12:21:22.102Z,88704.00
2018-07-28T12:22:22.092Z,48960.00
2018-07-28T12:23:22.128Z,87936.00
2018-07-28T12:24:22.094Z,67584.00
2018-07-28T12:25:22.062Z,86880.00
2018-07-28T12:26:22.055Z,73120.00
2018-07-28T12:27:22.043Z,89120.00
2018-07-28T12:28:22.079Z,90560.00
2018-07-28T12:29:22.025Z,90880.00
2018-07-28T12:30:22.012Z,92224.00
2018-07-28T12:31:22.004Z,89664.00
2018-07-28T12:32:21.997Z,89248.00
2018-07-28T12:33:22.046Z,69120.00
2018-07-28T12:34:21.975Z,21856.00
2018-07-28T12:35:21.965Z,4360.00
2018-07-28T12:36:21.982Z,4220.00
2018-07-28T12:37:21.945Z,4240.00
2018-07-28T12:38:22.012Z,4584.00
2018-07-28T12:39:21.932Z,5936.00
2018-07-28T12:40:21.913Z,5972.00
2018-07-28T12:41:21.913Z,6064.00
2018-07-28T12:42:21.897Z,5528.00
2018-07-28T12:43:21.930Z,5268.00
2018-07-28T12:44:21.875Z,5216.00
2018-07-28T12:45:21.871Z,5236.00
2018-07-28T12:46:21.852Z,6008.00
2018-07-28T12:47:21.846Z,5432.00
2018-07-28T12:48:21.877Z,5320.00
2018-07-28T12:49:21.849Z,5256.00
2018-07-28T12:50:21.812Z,4244.00
2018-07-28T12:51:21.801Z,3984.00
2018-07-28T12:52:21.791Z,3616.00
2018-07-28T12:53:21.828Z,3508.00
2018-07-28T12:54:21.786Z,3476.00
2018-07-28T12:55:21.831Z,3296.00
2018-07-28T12:56:21.764Z,3324.00
2018-07-28T12:57:21.757Z,3204.00
2018-07-28T12:58:21.779Z,3216.00
2018-07-28T12:59:21.721Z,3148.00
2018-07-28T13:00:21.717Z,3000.00
2018-07-28T13:01:21.697Z,3188.00
2018-07-28T13:02:21.686Z,3212.00
2018-07-28T13:03:21.738Z,3192.00
2018-07-28T13:04:21.673Z,3084.00
2018-07-28T13:05:21.653Z,3076.00
2018-07-28T13:06:21.650Z,3128.00
2018-07-28T13:07:21.631Z,3104.00
2018-07-28T13:08:21.623Z,3100.00
2018-07-28T13:09:21.665Z,3160.00
2018-07-28T13:10:21.609Z,3184.00
2018-07-28T13:11:21.589Z,2820.00
2018-07-28T13:12:21.585Z,2928.00
2018-07-28T13:13:21.576Z,3768.00
2018-07-28T13:14:21.603Z,6032.00
2018-07-28T13:15:21.546Z,6276.00
2018-07-28T13:16:21.535Z,5632.00
2018-07-28T13:17:21.524Z,4988.00
2018-07-28T13:18:21.516Z,3716.00
2018-07-28T13:19:21.550Z,3716.00
2018-07-28T13:20:21.493Z,3256.00
2018-07-28T13:21:21.480Z,2616.00